Time;durP1;ratioP1;P1;durP2;ratioP2;P2;SDS_P1;SDS_P2;PMS_P1;PMS_P2;Temp;Humidity;BMP_temperature;BMP_pressure;BME280_temperature;BME280_humidity;BME280_pressure;Samples;Min_cycle;Max_cycle;Signal;HPM_P1;HPM_P2
2023/10/29 00:00:30;;;;;;;;;;;;;;;18.69;56.16;98272.34;4979166;28;8074;-75
2023/10/29 00:02:56;;;;;;;;;;;;;;;18.68;55.51;98255.06;4983883;28;7006;-76
2023/10/29 00:05:22;;;;;;;;;;;;;;;18.68;55.81;98265.44;4981609;28;7176;-75
2023/10/29 00:07:48;;;;;;;;;;;;;;;18.60;55.97;98263.00;5000950;28;6828;-76
2023/10/29 00:10:16;;;;;;;;;;;;;;;18.50;56.00;98276.16;4967377;28;7278;-76
2023/10/29 00:12:42;;;;;;;;;;;;;;;18.41;56.43;98262.47;4983529;28;7005;-76
2023/10/29 00:15:08;;;;;;;;;;;;;;;18.41;56.11;98259.88;4984031;28;6914;-76
2023/10/29 00:17:33;;;;;;;;;;;;;;;18.45;56.80;98264.16;4983446;28;6779;-76
2023/10/29 00:19:59;;;;;;;;;;;;;;;18.55;56.33;98253.63;4983023;28;6843;-75
2023/10/29 00:22:27;;;;;;;;;;;;;;;18.60;56.38;98262.13;4993040;28;9988;-76
2023/10/29 00:24:52;;;;;;;;;;;;;;;18.65;56.35;98255.13;4982944;28;6979;-73
2023/10/29 00:27:18;;;;;;;;;;;;;;;18.69;56.04;98255.94;4984673;28;7012;-74
2023/10/29 00:29:45;;;;;;;;;;;;;;;18.71;55.76;98252.41;4984653;28;8391;-74
2023/10/29 00:32:11;;;;;;;;;;;;;;;18.75;55.79;98248.00;4983699;28;6780;-74
2023/10/29 00:34:36;;;;;;;;;;;;;;;18.76;55.83;98234.16;4967052;28;6984;-74
2023/10/29 00:37:03;;;;;;;;;;;;;;;18.78;55.46;98223.75;4969291;28;7422;-75
2023/10/29 00:39:28;;;;;;;;;;;;;;;18.74;55.77;98231.59;4985102;28;6852;-74
2023/10/29 00:41:54;;;;;;;;;;;;;;;18.73;55.36;98224.72;4990190;28;6996;-73
2023/10/29 00:44:21;;;;;;;;;;;;;;;18.72;55.70;98219.53;4988355;28;7187;-73
2023/10/29 00:46:47;;;;;;;;;;;;;;;18.71;55.84;98218.69;4988131;28;6788;-74
2023/10/29 00:49:12;;;;;;;;;;;;;;;18.70;56.04;98232.53;5001405;28;6771;-73
2023/10/29 00:51:38;;;;;;;;;;;;;;;18.70;55.37;98216.97;4982600;28;7210;-74
2023/10/29 00:54:05;;;;;;;;;;;;;;;18.68;55.57;98216.16;4989533;28;6780;-73
2023/10/29 00:56:32;;;;;;;;;;;;;;;18.68;55.93;98220.47;4981369;28;7027;-73
2023/10/29 00:58:57;;;;;;;;;;;;;;;18.68;55.94;98229.13;4986995;28;6829;-74
2023/10/29 01:01:25;;;;;;;;;;;;;;;18.69;55.75;98235.19;5005711;28;7306;-73
2023/10/29 01:03:50;;;;;;;;;;;;;;;18.70;55.31;98235.13;4986062;28;6955;-74
2023/10/29 01:06:17;;;;;;;;;;;;;;;18.72;55.07;98238.53;4970006;28;6967;-74
2023/10/29 01:08:43;;;;;;;;;;;;;;;18.77;55.22;98253.19;4990405;28;7053;-74
2023/10/29 01:11:09;;;;;;;;;;;;;;;18.69;54.91;98246.41;5005398;28;7248;-73
2023/10/29 01:13:34;;;;;;;;;;;;;;;18.53;55.43;98252.75;4991903;28;7158;-73
2023/10/29 01:16:04;;;;;;;;;;;;;;;18.30;55.88;98251.44;5018403;28;7162;-73
2023/10/29 01:18:32;;;;;;;;;;;;;;;18.10;56.66;98244.88;4991383;28;6852;-74
2023/10/29 01:20:58;;;;;;;;;;;;;;;17.94;56.83;98251.16;4988769;28;6980;-73
2023/10/29 01:23:25;;;;;;;;;;;;;;;17.80;57.35;98247.06;4983450;28;6959;-73
2023/10/29 01:25:51;;;;;;;;;;;;;;;17.72;57.61;98225.63;4990971;28;7227;-74
2023/10/29 01:28:16;;;;;;;;;;;;;;;17.63;58.37;98224.88;4988844;28;7084;-74
2023/10/29 01:30:42;;;;;;;;;;;;;;;17.60;58.62;98221.47;4988201;28;6784;-74
2023/10/29 01:33:08;;;;;;;;;;;;;;;17.57;58.29;98213.75;4985159;28;6967;-72
2023/10/29 01:35:33;;;;;;;;;;;;;;;17.54;59.01;98187.91;4985145;28;6945;-73
2023/10/29 01:38:01;;;;;;;;;;;;;;;17.48;58.59;98165.56;4999928;28;6767;-73
2023/10/29 01:40:27;;;;;;;;;;;;;;;17.43;59.45;98160.47;4977698;28;6820;-74
2023/10/29 01:42:53;;;;;;;;;;;;;;;17.40;59.36;98160.50;4976103;28;6995;-73
2023/10/29 01:45:18;;;;;;;;;;;;;;;17.38;59.48;98158.81;4960430;28;7438;-73
2023/10/29 01:47:44;;;;;;;;;;;;;;;17.37;60.01;98170.03;4985009;28;6764;-73
2023/10/29 01:50:10;;;;;;;;;;;;;;;17.35;59.69;98165.75;4991145;28;6963;-73
2023/10/29 01:52:38;;;;;;;;;;;;;;;17.33;59.95;98167.50;5000673;28;7297;-73
2023/10/29 01:55:06;;;;;;;;;;;;;;;17.35;59.88;98170.09;4977492;28;7070;-73
2023/10/29 01:57:36;;;;;;;;;;;;;;;17.39;59.50;98176.06;4976979;28;6943;-73
2023/10/29 02:00:05;;;;;;;;;;;;;;;17.44;59.53;98166.47;4980491;28;6808;-73
2023/10/29 02:02:32;;;;;;;;;;;;;;;17.50;59.36;98166.41;4979287;28;6942;-73
2023/10/29 02:04:58;;;;;;;;;;;;;;;17.57;59.37;98151.59;4961968;28;7243;-73
2023/10/29 02:07:24;;;;;;;;;;;;;;;17.62;59.48;98136.81;4997008;28;7773;-72
2023/10/29 02:09:50;;;;;;;;;;;;;;;17.68;58.72;98136.72;4979067;28;7873;-73
2023/10/29 02:12:15;;;;;;;;;;;;;;;17.75;58.66;98130.56;5000344;28;6854;-73
2023/10/29 02:14:41;;;;;;;;;;;;;;;17.80;59.11;98137.41;4980537;28;7194;-73
2023/10/29 02:17:07;;;;;;;;;;;;;;;17.84;58.56;98129.53;4980393;28;6787;-73
2023/10/29 02:19:32;;;;;;;;;;;;;;;17.87;58.62;98132.09;5016884;28;7205;-73
2023/10/29 02:21:58;;;;;;;;;;;;;;;17.90;58.51;98132.03;5000930;28;7686;-73
2023/10/29 02:24:24;;;;;;;;;;;;;;;17.91;58.38;98119.91;4967375;28;6972;-73
2023/10/29 02:26:49;;;;;;;;;;;;;;;17.95;58.44;98128.50;4975223;28;8924;-73
2023/10/29 02:29:15;;;;;;;;;;;;;;;17.96;58.46;98114.66;5001472;28;6784;-73
2023/10/29 02:31:40;;;;;;;;;;;;;;;18.00;58.10;98124.09;4985322;28;7096;-73
2023/10/29 02:34:06;;;;;;;;;;;;;;;18.02;58.50;98124.91;4982276;28;6776;-73
2023/10/29 02:36:32;;;;;;;;;;;;;;;18.03;57.85;98129.19;4979166;28;6764;-73
2023/10/29 02:38:58;;;;;;;;;;;;;;;18.06;57.81;98130.91;4970487;28;6981;-73
2023/10/29 02:41:24;;;;;;;;;;;;;;;18.07;57.58;98104.97;4981913;28;6792;-73
2023/10/29 02:43:49;;;;;;;;;;;;;;;18.09;57.71;98111.00;4980576;28;7506;-73
2023/10/29 02:46:16;;;;;;;;;;;;;;;18.09;58.04;98110.13;4995912;28;7099;-74
2023/10/29 02:48:41;;;;;;;;;;;;;;;18.10;57.94;98117.00;4999890;28;6847;-74
2023/10/29 02:51:12;;;;;;;;;;;;;;;18.13;57.67;98109.19;4999388;28;6827;-74
2023/10/29 02:53:38;;;;;;;;;;;;;;;18.12;57.31;98110.09;4996172;28;6860;-74
2023/10/29 02:56:04;;;;;;;;;;;;;;;18.16;57.84;98114.31;5002563;28;6804;-74
2023/10/29 02:58:29;;;;;;;;;;;;;;;18.17;57.70;98103.91;5016827;28;6768;-75
2023/10/29 03:01:08;;;;;;;;;;;;;;;18.19;57.01;98111.66;5004562;28;6775;-74
2023/10/29 03:03:37;;;;;;;;;;;;;;;18.20;57.06;98099.56;5018719;28;7015;-74
2023/10/29 03:06:05;;;;;;;;;;;;;;;18.18;57.09;98094.38;5000347;28;7106;-75
2023/10/29 03:08:31;;;;;;;;;;;;;;;18.20;57.28;98090.03;5004162;28;6804;-75
2023/10/29 03:10:57;;;;;;;;;;;;;;;18.20;56.86;98113.34;4998854;28;6995;-74
2023/10/29 03:13:22;;;;;;;;;;;;;;;18.22;56.92;98090.88;5019901;28;6847;-75
2023/10/29 03:15:48;;;;;;;;;;;;;;;18.25;57.24;98100.28;5004117;28;6784;-75
2023/10/29 03:18:14;;;;;;;;;;;;;;;18.26;56.55;98074.34;5004862;28;6756;-76
2023/10/29 03:20:40;;;;;;;;;;;;;;;18.28;57.08;98082.94;4976596;28;7256;-75
2023/10/29 03:23:07;;;;;;;;;;;;;;;18.29;56.94;98092.44;5001325;28;6771;-75
2023/10/29 03:25:33;;;;;;;;;;;;;;;18.32;57.15;98107.06;4998876;28;6929;-74
2023/10/29 03:27:59;;;;;;;;;;;;;;;18.34;56.55;98109.66;4998065;28;6911;-75
2023/10/29 03:30:24;;;;;;;;;;;;;;;18.33;56.57;98108.78;4994098;28;6759;-75
2023/10/29 03:32:50;;;;;;;;;;;;;;;18.34;56.53;98115.66;4998171;28;6980;-74
2023/10/29 03:35:15;;;;;;;;;;;;;;;18.38;56.50;98112.16;5013254;28;6780;-74
2023/10/29 03:37:41;;;;;;;;;;;;;;;18.39;56.36;98113.84;5011787;28;7246;-74
2023/10/29 03:40:08;;;;;;;;;;;;;;;18.42;56.33;98107.75;4996911;28;6780;-75
2023/10/29 03:42:33;;;;;;;;;;;;;;;18.44;56.06;98111.16;5000468;28;6937;-75
2023/10/29 03:45:00;;;;;;;;;;;;;;;18.46;55.71;98111.97;4997094;28;6947;-75
2023/10/29 03:47:26;;;;;;;;;;;;;;;18.48;55.83;98104.19;5011244;28;7077;-75
2023/10/29 03:49:51;;;;;;;;;;;;;;;18.51;55.24;98123.13;4998715;28;6764;-74
2023/10/29 03:52:20;;;;;;;;;;;;;;;18.54;55.12;98122.19;4994379;28;6779;-74
2023/10/29 03:54:46;;;;;;;;;;;;;;;18.57;55.11;98116.94;5012660;28;6971;-74
2023/10/29 03:57:11;;;;;;;;;;;;;;;18.60;54.84;98124.66;4985059;28;6780;-73
2023/10/29 03:59:37;;;;;;;;;;;;;;;18.63;54.71;98126.34;4981590;28;6975;-73
2023/10/29 04:02:03;;;;;;;;;;;;;;;18.66;54.96;98132.31;4982499;28;6939;-73
2023/10/29 04:04:29;;;;;;;;;;;;;;;18.68;54.63;98134.84;4984691;28;8469;-73
2023/10/29 04:06:55;;;;;;;;;;;;;;;18.72;54.74;98139.13;4985795;28;6936;-73
2023/10/29 04:09:20;;;;;;;;;;;;;;;18.73;54.19;98149.47;4966189;28;7235;-74
2023/10/29 04:11:46;;;;;;;;;;;;;;;18.76;54.02;98147.69;4995489;28;6955;-74
2023/10/29 04:14:12;;;;;;;;;;;;;;;18.78;54.40;98154.53;4996368;28;6844;-73
2023/10/29 04:16:37;;;;;;;;;;;;;;;18.77;54.19;98155.41;4980901;28;6935;-73
2023/10/29 04:19:03;;;;;;;;;;;;;;;18.80;54.12;98164.88;4979553;28;6772;-73
2023/10/29 04:21:28;;;;;;;;;;;;;;;18.81;53.99;98169.19;4978328;28;7233;-74
2023/10/29 04:23:54;;;;;;;;;;;;;;;18.83;53.89;98168.28;4985263;28;7450;-73
2023/10/29 04:26:19;;;;;;;;;;;;;;;18.83;54.22;98146.66;4985950;28;6784;-74
2023/10/29 04:28:45;;;;;;;;;;;;;;;18.83;54.11;98150.13;4998088;28;6944;-74
2023/10/29 04:31:11;;;;;;;;;;;;;;;18.86;53.37;98160.41;4983301;28;6808;-73
2023/10/29 04:33:38;;;;;;;;;;;;;;;18.87;53.54;98156.09;5002084;28;6939;-73
2023/10/29 04:36:05;;;;;;;;;;;;;;;18.90;53.58;98166.41;4981475;28;7236;-73
2023/10/29 04:38:31;;;;;;;;;;;;;;;18.93;53.34;98165.47;5016910;28;7005;-73
2023/10/29 04:40:57;;;;;;;;;;;;;;;18.93;53.13;98168.94;4985060;28;6972;-73
2023/10/29 04:43:23;;;;;;;;;;;;;;;18.93;53.41;98166.34;4984091;28;6971;-74
2023/10/29 04:45:48;;;;;;;;;;;;;;;18.94;53.48;98167.19;4981846;28;7217;-73
2023/10/29 04:48:16;;;;;;;;;;;;;;;18.91;53.46;98162.91;4991028;28;6780;-73
2023/10/29 04:50:41;;;;;;;;;;;;;;;18.88;52.84;98150.00;4974929;28;7252;-73
2023/10/29 04:53:07;;;;;;;;;;;;;;;18.86;53.30;98151.78;4977193;28;7155;-73
2023/10/29 04:55:33;;;;;;;;;;;;;;;18.83;52.86;98154.44;4981511;28;6990;-73
2023/10/29 04:57:58;;;;;;;;;;;;;;;18.81;53.21;98164.00;4978191;28;6764;-73
2023/10/29 05:00:24;;;;;;;;;;;;;;;18.83;53.57;98172.59;4980230;28;6776;-73
2023/10/29 05:02:50;;;;;;;;;;;;;;;18.85;52.86;98173.44;4984320;28;6951;-72
2023/10/29 05:05:15;;;;;;;;;;;;;;;18.86;53.32;98180.34;5012868;28;7486;-76
2023/10/29 05:07:43;;;;;;;;;;;;;;;18.84;53.20;98197.69;4977631;28;6997;-75
2023/10/29 05:10:09;;;;;;;;;;;;;;;18.84;53.81;98190.75;4983401;28;6835;-75
2023/10/29 05:12:34;;;;;;;;;;;;;;;18.86;53.80;98198.50;5000240;28;7435;-76
2023/10/29 05:15:00;;;;;;;;;;;;;;;18.87;53.31;98201.03;4977260;28;6848;-75
2023/10/29 05:17:25;;;;;;;;;;;;;;;18.88;52.98;98209.69;4981487;28;6779;-75
2023/10/29 05:19:51;;;;;;;;;;;;;;;18.90;53.04;98202.72;4979351;28;8521;-75
2023/10/29 05:22:17;;;;;;;;;;;;;;;18.89;53.05;98201.03;4979291;28;6815;-75
2023/10/29 05:24:42;;;;;;;;;;;;;;;18.87;53.49;98195.84;4978975;28;6784;-76
2023/10/29 05:27:08;;;;;;;;;;;;;;;18.86;53.09;98208.88;4984141;28;7032;-75
2023/10/29 05:29:34;;;;;;;;;;;;;;;18.81;52.70;98205.53;4983732;28;7936;-75
2023/10/29 05:32:00;;;;;;;;;;;;;;;18.75;53.12;98203.91;4984992;28;6997;-75
2023/10/29 05:34:26;;;;;;;;;;;;;;;18.70;53.37;98201.41;4997059;28;7936;-76
2023/10/29 05:36:51;;;;;;;;;;;;;;;18.63;53.63;98204.16;4980172;28;6776;-75
2023/10/29 05:39:17;;;;;;;;;;;;;;;18.59;52.76;98204.22;4987885;28;6956;-76
2023/10/29 05:41:42;;;;;;;;;;;;;;;18.56;53.20;98213.81;4954811;28;7282;-75
2023/10/29 05:44:08;;;;;;;;;;;;;;;18.53;53.60;98226.81;4991774;28;6846;-74
2023/10/29 05:46:34;;;;;;;;;;;;;;;18.51;53.10;98215.63;4984890;28;6784;-76
2023/10/29 05:48:59;;;;;;;;;;;;;;;18.46;53.22;98226.09;4970163;28;7285;-76
2023/10/29 05:51:25;;;;;;;;;;;;;;;18.43;53.82;98214.03;4967995;28;8467;-76
2023/10/29 05:53:51;;;;;;;;;;;;;;;18.41;53.87;98235.72;5001606;28;6784;-76
2023/10/29 05:56:18;;;;;;;;;;;;;;;18.40;53.78;98226.22;4984824;28;6788;-76
2023/10/29 05:58:44;;;;;;;;;;;;;;;18.39;53.69;98222.75;4982932;28;7465;-75
2023/10/29 06:01:11;;;;;;;;;;;;;;;18.38;53.16;98240.94;4984540;28;6864;-75
2023/10/29 06:03:37;;;;;;;;;;;;;;;18.37;53.64;98247.00;4958516;28;7022;-75
2023/10/29 06:06:03;;;;;;;;;;;;;;;18.34;53.23;98247.91;4981881;28;7557;-77
2023/10/29 06:08:28;;;;;;;;;;;;;;;18.30;53.50;98259.22;5006620;23;6796;-77
2023/10/29 06:10:54;;;;;;;;;;;;;;;18.28;53.56;98263.59;4947556;28;6792;-75
2023/10/29 06:13:20;;;;;;;;;;;;;;;18.27;53.64;98265.31;4943500;28;6926;-75
2023/10/29 06:15:46;;;;;;;;;;;;;;;18.27;53.56;98277.44;4965927;28;7803;-75
2023/10/29 06:18:12;;;;;;;;;;;;;;;18.26;53.73;98273.16;4962983;28;6796;-75
2023/10/29 06:20:41;;;;;;;;;;;;;;;18.24;54.19;98286.13;4963381;28;6808;-75
2023/10/29 06:23:08;;;;;;;;;;;;;;;18.22;53.91;98298.28;4943583;28;8482;-75
2023/10/29 06:25:33;;;;;;;;;;;;;;;18.22;54.23;98289.63;4965353;28;6811;-75
2023/10/29 06:27:59;;;;;;;;;;;;;;;18.21;54.04;98295.69;4961905;28;6776;-74
2023/10/29 06:30:25;;;;;;;;;;;;;;;18.20;54.04;98296.56;4993606;28;7005;-75
2023/10/29 06:32:51;;;;;;;;;;;;;;;18.18;54.20;98310.41;4961723;28;6821;-74
2023/10/29 06:35:17;;;;;;;;;;;;;;;18.17;54.38;98305.25;4961078;28;6808;-75
2023/10/29 06:37:42;;;;;;;;;;;;;;;18.14;54.10;98300.97;4976543;28;6780;-74
2023/10/29 06:40:08;;;;;;;;;;;;;;;18.13;53.74;98320.00;4993949;28;6995;-75
2023/10/29 06:42:34;;;;;;;;;;;;;;;18.12;54.10;98323.47;4961231;28;7347;-75
2023/10/29 06:45:00;;;;;;;;;;;;;;;18.10;54.03;98320.06;4960345;28;6756;-75
2023/10/29 06:47:25;;;;;;;;;;;;;;;18.08;53.79;98319.22;4976853;28;7175;-75
2023/10/29 06:49:51;;;;;;;;;;;;;;;18.08;53.67;98332.19;4962623;28;6841;-75
2023/10/29 06:52:16;;;;;;;;;;;;;;;18.06;53.90;98328.78;4991597;28;6765;-74
2023/10/29 06:54:42;;;;;;;;;;;;;;;18.03;54.13;98328.78;4962514;28;6856;-75
2023/10/29 06:57:08;;;;;;;;;;;;;;;18.01;53.61;98339.19;4960744;28;6760;-75
2023/10/29 06:59:34;;;;;;;;;;;;;;;18.00;53.93;98349.56;4961150;28;6792;-75
2023/10/29 07:02:00;;;;;;;;;;;;;;;17.98;53.65;98352.16;4959587;28;6776;-75
2023/10/29 07:04:26;;;;;;;;;;;;;;;17.96;53.50;98345.28;4957111;28;6772;-75
2023/10/29 07:06:52;;;;;;;;;;;;;;;17.93;53.47;98348.81;4970911;28;7306;-75
2023/10/29 07:09:18;;;;;;;;;;;;;;;17.91;53.69;98351.41;4957783;28;7329;-75
2023/10/29 07:11:45;;;;;;;;;;;;;;;17.89;53.86;98354.88;4950866;28;8600;-75
2023/10/29 07:14:12;;;;;;;;;;;;;;;17.86;53.97;98360.13;4953974;28;7094;-75
2023/10/29 07:16:49;;;;;;;;;;;;;;;17.80;54.06;98360.19;4951275;28;8888;-75
2023/10/29 07:19:16;;;;;;;;;;;;;;;17.76;54.07;98361.97;4957179;28;8210;-75
2023/10/29 07:21:42;;;;;;;;;;;;;;;17.73;54.10;98364.63;4973663;28;6888;-75
2023/10/29 07:24:08;;;;;;;;;;;;;;;17.71;53.74;98354.28;4951971;28;7767;-75
2023/10/29 07:26:34;;;;;;;;;;;;;;;17.70;53.96;98356.91;4958161;28;7317;-75
2023/10/29 07:29:01;;;;;;;;;;;;;;;17.69;54.27;98360.38;4934087;28;8885;-75
2023/10/29 07:31:27;;;;;;;;;;;;;;;17.67;54.05;98367.28;4985572;28;7246;-74
2023/10/29 07:33:52;;;;;;;;;;;;;;;17.64;54.09;98368.22;4975453;28;6992;-76
2023/10/29 07:36:23;;;;;;;;;;;;;;;17.62;54.35;98376.00;4971084;28;6840;-76
2023/10/29 07:38:49;;;;;;;;;;;;;;;17.58;54.34;98358.78;4973417;28;6997;-77
2023/10/29 07:41:19;;;;;;;;;;;;;;;17.58;54.31;98384.69;4972029;28;6887;-75
2023/10/29 07:43:45;;;;;;;;;;;;;;;17.58;53.94;98414.91;4970049;28;7216;-75
2023/10/29 07:46:11;;;;;;;;;;;;;;;17.56;54.37;98425.25;4992390;28;7245;-75
2023/10/29 07:48:36;;;;;;;;;;;;;;;17.57;54.60;98429.56;4974265;28;6772;-75
2023/10/29 07:51:02;;;;;;;;;;;;;;;17.56;54.34;98425.25;4974278;28;6959;-75
2023/10/29 07:53:30;;;;;;;;;;;;;;;17.58;54.49;98420.94;4977474;28;6900;-75
2023/10/29 07:56:16;;;;;;;;;;;;;;;17.58;54.64;98433.91;4976351;28;7292;-75
2023/10/29 07:58:44;;;;;;;;;;;;;;;17.59;54.05;98427.84;4978952;28;6856;-75
2023/10/29 08:01:15;;;;;;;;;;;;;;;17.61;53.83;98425.22;4992142;28;7143;-75
2023/10/29 08:03:42;;;;;;;;;;;;;;;17.60;54.52;98415.72;4992604;28;6947;-75
2023/10/29 08:06:07;;;;;;;;;;;;;;;17.61;53.88;98407.94;4967642;28;7159;-75
2023/10/29 08:08:35;;;;;;;;;;;;;;;17.61;53.66;98405.34;4991947;28;6899;-75
2023/10/29 08:11:01;;;;;;;;;;;;;;;17.60;53.92;98424.38;4975370;28;6800;-74
2023/10/29 08:13:26;;;;;;;;;;;;;;;17.62;53.87;98439.88;4991981;28;6961;-75
2023/10/29 08:15:52;;;;;;;;;;;;;;;17.63;53.41;98434.69;4977259;28;7158;-75
2023/10/29 08:18:18;;;;;;;;;;;;;;;17.68;53.98;98436.38;5008102;28;6986;-75
2023/10/29 08:20:43;;;;;;;;;;;;;;;17.70;53.96;98442.38;4973486;28;7109;-75
2023/10/29 08:23:10;;;;;;;;;;;;;;;17.75;53.70;98453.53;4975525;28;6791;-74
2023/10/29 08:25:36;;;;;;;;;;;;;;;17.79;53.92;98428.44;4975317;28;6804;-74
2023/10/29 08:28:02;;;;;;;;;;;;;;;17.84;53.80;98427.50;4970729;28;7801;-75
2023/10/29 08:30:28;;;;;;;;;;;;;;;17.89;53.56;98430.03;4978436;28;6935;-75
2023/10/29 08:32:55;;;;;;;;;;;;;;;17.95;53.59;98444.66;4961781;28;6989;-74
2023/10/29 08:35:21;;;;;;;;;;;;;;;17.99;53.34;98452.34;4953132;28;7172;-74
2023/10/29 08:37:46;;;;;;;;;;;;;;;18.03;53.14;98451.50;4994489;28;6934;-73
2023/10/29 08:40:13;;;;;;;;;;;;;;;18.08;53.29;98466.09;4947748;28;6976;-73
2023/10/29 08:42:38;;;;;;;;;;;;;;;18.13;53.00;98466.91;4956972;28;8479;-74
2023/10/29 08:45:05;;;;;;;;;;;;;;;18.18;53.10;98467.69;4975584;28;6847;-73
2023/10/29 08:47:31;;;;;;;;;;;;;;;18.24;53.14;98465.03;4962446;28;6926;-73
2023/10/29 08:49:58;;;;;;;;;;;;;;;18.28;52.92;98458.06;4960886;28;7296;-73
2023/10/29 08:52:23;;;;;;;;;;;;;;;18.31;53.13;98456.28;4946612;28;7074;-73
2023/10/29 08:54:50;;;;;;;;;;;;;;;18.36;53.01;98486.47;4960204;28;6796;-73
2023/10/29 08:57:15;;;;;;;;;;;;;;;18.39;52.85;98482.09;4945248;28;7064;-73
2023/10/29 08:59:42;;;;;;;;;;;;;;;18.41;53.38;98469.97;4962056;28;6795;-73
2023/10/29 09:02:08;;;;;;;;;;;;;;;18.43;52.92;98472.53;4963576;28;6796;-73
2023/10/29 09:04:38;;;;;;;;;;;;;;;18.46;52.60;98488.03;4965827;28;6945;-74
2023/10/29 09:07:04;;;;;;;;;;;;;;;18.51;52.69;98516.50;4965280;28;6957;-73
2023/10/29 09:09:31;;;;;;;;;;;;;;;18.55;52.74;98516.44;4965332;28;7167;-74
2023/10/29 09:11:57;;;;;;;;;;;;;;;18.58;53.02;98502.56;4964831;28;7099;-73
2023/10/29 09:14:22;;;;;;;;;;;;;;;18.60;52.52;98500.81;4962813;28;6788;-73
2023/10/29 09:16:48;;;;;;;;;;;;;;;18.62;52.22;98498.19;4962306;28;6999;-72
2023/10/29 09:19:15;;;;;;;;;;;;;;;18.62;51.98;98496.44;4962752;28;7206;-73
2023/10/29 09:21:41;;;;;;;;;;;;;;;18.63;51.92;98489.53;4965004;28;6808;-72
2023/10/29 09:24:07;;;;;;;;;;;;;;;18.66;52.19;98505.91;4963776;28;7179;-73
2023/10/29 09:26:33;;;;;;;;;;;;;;;18.70;52.50;98497.19;4967355;28;7873;-73
2023/10/29 09:29:02;;;;;;;;;;;;;;;18.76;52.45;98491.03;4981679;28;6812;-73
2023/10/29 09:31:29;;;;;;;;;;;;;;;18.81;51.76;98484.06;4965781;28;7010;-73
2023/10/29 09:33:55;;;;;;;;;;;;;;;18.86;51.70;98490.00;4944853;28;6975;-72
2023/10/29 09:36:23;;;;;;;;;;;;;;;18.88;51.30;98479.59;4966680;28;7268;-73
2023/10/29 09:38:49;;;;;;;;;;;;;;;18.95;51.08;98488.13;4965399;28;6787;-73
2023/10/29 09:41:18;;;;;;;;;;;;;;;19.03;51.17;98475.09;4963821;28;7263;-73
2023/10/29 09:43:46;;;;;;;;;;;;;;;19.15;51.01;98473.09;4966696;28;6981;-74
2023/10/29 09:46:13;;;;;;;;;;;;;;;19.27;51.16;98469.44;4965004;28;6852;-78
2023/10/29 09:48:42;;;;;;;;;;;;;;;19.40;50.48;98469.19;4988703;23;6791;-77
2023/10/29 09:51:08;;;;;;;;;;;;;;;19.51;50.71;98475.06;4956851;28;7084;-78
2023/10/29 09:53:36;;;;;;;;;;;;;;;19.61;50.14;98487.88;4944447;28;7039;-76
2023/10/29 09:56:05;;;;;;;;;;;;;;;19.83;50.26;98485.69;4948082;28;6800;-78
2023/10/29 09:58:30;;;;;;;;;;;;;;;20.14;49.59;98463.41;4952291;28;6996;-76
2023/10/29 10:00:58;;;;;;;;;;;;;;;20.37;48.63;98463.72;4979818;28;7228;-76
2023/10/29 10:03:26;;;;;;;;;;;;;;;20.45;47.87;98479.19;4983293;28;6897;-78
2023/10/29 10:05:52;;;;;;;;;;;;;;;20.39;47.55;98467.19;4961678;28;8649;-78
2023/10/29 10:08:29;;;;;;;;;;;;;;;20.31;47.38;98474.28;4981833;28;6772;-77
2023/10/29 10:10:56;;;;;;;;;;;;;;;20.22;46.99;98472.75;4980937;28;6867;-78
2023/10/29 10:13:41;;;;;;;;;;;;;;;20.12;47.69;98453.03;4965781;28;6943;-78
2023/10/29 10:16:10;;;;;;;;;;;;;;;20.09;48.04;98450.50;4964984;28;6796;-79
2023/10/29 10:18:58;;;;;;;;;;;;;;;20.20;48.14;98453.72;4980264;28;6984;-78
2023/10/29 10:21:40;;;;;;;;;;;;;;;20.34;48.80;98443.00;4978702;28;8111;-80
2023/10/29 10:24:06;;;;;;;;;;;;;;;20.63;48.48;98451.03;4963651;28;6828;-77
2023/10/29 10:26:35;;;;;;;;;;;;;;;20.97;47.27;98462.38;4997228;28;6994;-79
2023/10/29 10:29:07;;;;;;;;;;;;;;;21.40;46.92;98471.63;4948300;28;6952;-78
2023/10/29 10:31:35;;;;;;;;;;;;;;;22.00;47.13;98476.94;4980126;28;7051;-79
2023/10/29 10:34:18;;;;;;;;;;;;;;;22.43;43.88;98450.44;4949545;28;7436;-78
2023/10/29 10:36:50;;;;;;;;;;;;;;;22.59;44.35;98450.81;4976299;28;7365;-78
2023/10/29 10:39:22;;;;;;;;;;;;;;;23.05;44.72;98456.25;4982041;28;6792;-76
2023/10/29 10:41:49;;;;;;;;;;;;;;;23.68;43.53;98460.19;4978647;28;6820;-76
2023/10/29 10:44:19;;;;;;;;;;;;;;;24.00;42.40;98458.97;4985835;23;7500;-80
2023/10/29 10:46:51;;;;;;;;;;;;;;;23.89;41.71;98465.50;4942657;28;7734;-78
2023/10/29 10:49:19;;;;;;;;;;;;;;;23.56;41.13;98477.16;4986763;23;6803;-82
2023/10/29 10:51:52;;;;;;;;;;;;;;;23.28;42.48;98459.88;4950328;28;8512;-84
2023/10/29 10:54:19;;;;;;;;;;;;;;;23.09;42.49;98465.72;4967168;28;8565;-82
2023/10/29 10:56:46;;;;;;;;;;;;;;;22.93;42.16;98460.13;4955582;28;8884;-84
2023/10/29 10:59:13;;;;;;;;;;;;;;;22.75;42.65;98465.09;4963649;28;6792;-82
2023/10/29 11:01:39;;;;;;;;;;;;;;;22.57;42.11;98471.75;4954589;28;8876;-82
2023/10/29 11:04:10;;;;;;;;;;;;;;;22.33;42.50;98476.81;4966387;28;6973;-82
2023/10/29 11:06:41;;;;;;;;;;;;;;;22.04;42.25;98483.78;4963691;28;8535;-84
2023/10/29 11:09:14;;;;;;;;;;;;;;;21.74;42.77;98504.63;4952571;28;7238;-84
2023/10/29 11:11:53;;;;;;;;;;;;;;;21.42;43.66;98510.69;4948190;28;8720;-84
2023/10/29 11:14:21;;;;;;;;;;;;;;;20.99;44.37;98516.09;4947711;28;8414;-84
2023/10/29 11:16:52;;;;;;;;;;;;;;;20.45;45.17;98507.81;4964868;28;8545;-84
2023/10/29 11:19:45;;;;;;;;;;;;;;;19.84;46.96;98521.19;4967470;28;7397;-84
2023/10/29 11:22:29;;;;;;;;;;;;;;;19.31;48.16;98535.16;4960990;28;6812;-84
2023/10/29 11:25:11;;;;;;;;;;;;;;;18.89;49.39;98528.03;4978311;28;7027;-83
2023/10/29 11:30:19;;;;;;;;;;;;;;;18.23;50.45;98533.31;3231579;26;7224;-82
2023/10/29 11:33:21;;;;;;;;;;;;;;;17.97;52.04;98529.28;5008747;28;6971;-84
2023/10/29 11:35:46;;;;;;;;;;;;;;;17.78;53.17;98518.28;5002524;28;7490;-82
2023/10/29 11:38:36;;;;;;;;;;;;;;;17.61;53.62;98523.63;4985920;28;7362;-83
2023/10/29 11:41:35;;;;;;;;;;;;;;;17.44;53.94;98540.22;4978126;28;9089;-83
2023/10/29 11:44:29;;;;;;;;;;;;;;;17.32;55.14;98541.19;4983413;28;6888;-83
2023/10/29 11:46:55;;;;;;;;;;;;;;;17.23;55.41;98543.00;5002504;28;7190;-83
2023/10/29 11:49:22;;;;;;;;;;;;;;;17.17;56.16;98533.56;4981548;28;8641;-82
2023/10/29 11:51:57;;;;;;;;;;;;;;;17.16;56.50;98524.94;4990619;28;6876;-83
2023/10/29 11:54:23;;;;;;;;;;;;;;;17.19;56.57;98536.97;4982549;28;7132;-83
2023/10/29 11:56:51;;;;;;;;;;;;;;;17.17;57.07;98536.16;4987934;28;6820;-83
2023/10/29 11:59:18;;;;;;;;;;;;;;;17.12;56.66;98536.19;4999991;28;7861;-83
2023/10/29 12:01:44;;;;;;;;;;;;;;;17.10;57.24;98535.34;4986345;28;6784;-83
2023/10/29 12:04:13;;;;;;;;;;;;;;;17.07;57.89;98519.84;4986836;28;6816;-83
2023/10/29 12:06:40;;;;;;;;;;;;;;;17.02;57.57;98501.78;4997886;28;7616;-83
2023/10/29 12:09:21;;;;;;;;;;;;;;;17.02;57.81;98468.13;4984783;28;8575;-83
2023/10/29 12:11:54;;;;;;;;;;;;;;;16.99;58.16;98462.94;4987147;28;8410;-83
2023/10/29 12:14:43;;;;;;;;;;;;;;;17.00;58.67;98450.88;4988778;28;6812;-82
2023/10/29 12:17:10;;;;;;;;;;;;;;;17.07;59.06;98437.88;4985398;28;8553;-83
2023/10/29 12:19:41;;;;;;;;;;;;;;;17.18;58.96;98445.53;4993132;28;8765;-83
2023/10/29 12:22:20;;;;;;;;;;;;;;;17.25;58.63;98442.91;4983421;28;7170;-83
2023/10/29 12:24:53;;;;;;;;;;;;;;;17.26;58.24;98448.03;4984911;28;8296;-83
2023/10/29 12:27:22;;;;;;;;;;;;;;;17.26;58.53;98461.00;4988457;28;7185;-83
2023/10/29 12:29:50;;;;;;;;;;;;;;;17.29;58.52;98471.34;4968682;28;7933;-83
2023/10/29 12:32:22;;;;;;;;;;;;;;;17.35;58.42;98478.19;4969751;28;8552;-83
2023/10/29 12:34:58;;;;;;;;;;;;;;;17.41;58.42;98479.84;4977903;28;6796;-83
2023/10/29 12:37:28;;;;;;;;;;;;;;;17.46;58.71;98502.22;5007076;28;8523;-83
2023/10/29 12:39:59;;;;;;;;;;;;;;;17.52;58.69;98511.66;4993138;28;6864;-83
2023/10/29 12:42:54;;;;;;;;;;;;;;;17.56;58.62;98500.38;4964709;28;8468;-82
2023/10/29 12:45:31;;;;;;;;;;;;;;;17.57;58.40;98483.97;4989309;28;6808;-84
2023/10/29 12:48:15;;;;;;;;;;;;;;;17.63;59.14;98450.22;5009725;28;7009;-82
2023/10/29 12:50:51;;;;;;;;;;;;;;;17.71;59.00;98431.16;4987202;28;7188;-83
2023/10/29 12:53:24;;;;;;;;;;;;;;;17.75;58.84;98425.03;4992831;28;8727;-82
2023/10/29 12:55:50;;;;;;;;;;;;;;;17.75;59.26;98423.31;4996277;28;6959;-82
2023/10/29 12:58:16;;;;;;;;;;;;;;;17.78;58.92;98409.47;4973595;28;7138;-82
2023/10/29 13:00:43;;;;;;;;;;;;;;;17.82;59.77;98408.53;4988928;28;8711;-83
2023/10/29 13:03:09;;;;;;;;;;;;;;;17.88;59.36;98399.81;4995755;28;6824;-82